sensor_id;sensor_type;location;lat;lon;timestamp;P1;durP1;ratioP1;P2;durP2;ratioP2
595;SDS011;19946;49.306;11.350;2024-01-25T00:01:20;1.50;;;1.50;;
595;SDS011;19946;49.306;11.350;2024-01-25T00:04:20;1.40;;;1.40;;
595;SDS011;19946;49.306;11.350;2024-01-25T00:07:20;1.70;;;1.70;;
595;SDS011;19946;49.306;11.350;2024-01-25T00:10:21;1.60;;;1.60;;
595;SDS011;19946;49.306;11.350;2024-01-25T00:13:21;1.60;;;1.60;;
595;SDS011;19946;49.306;11.350;2024-01-25T00:16:21;1.60;;;1.60;;
595;SDS011;19946;49.306;11.350;2024-01-25T00:19:22;1.87;;;1.87;;
595;SDS011;19946;49.306;11.350;2024-01-25T00:22:22;1.80;;;1.80;;
595;SDS011;19946;49.306;11.350;2024-01-25T00:25:22;1.80;;;1.80;;
595;SDS011;19946;49.306;11.350;2024-01-25T00:28:23;1.60;;;1.60;;
595;SDS011;19946;49.306;11.350;2024-01-25T00:31:23;1.73;;;1.73;;
595;SDS011;19946;49.306;11.350;2024-01-25T00:34:24;1.80;;;1.80;;
595;SDS011;19946;49.306;11.350;2024-01-25T00:37:25;1.60;;;1.60;;
595;SDS011;19946;49.306;11.350;2024-01-25T00:40:25;1.70;;;1.70;;
595;SDS011;19946;49.306;11.350;2024-01-25T00:43:26;2.00;;;2.00;;
595;SDS011;19946;49.306;11.350;2024-01-25T00:46:26;1.50;;;1.50;;
595;SDS011;19946;49.306;11.350;2024-01-25T00:49:27;1.60;;;1.60;;
595;SDS011;19946;49.306;11.350;2024-01-25T00:52:27;1.60;;;1.60;;
595;SDS011;19946;49.306;11.350;2024-01-25T00:55:28;1.60;;;1.60;;
595;SDS011;19946;49.306;11.350;2024-01-25T00:58:29;1.90;;;1.90;;
595;SDS011;19946;49.306;11.350;2024-01-25T01:01:29;2.33;;;2.33;;
595;SDS011;19946;49.306;11.350;2024-01-25T01:04:30;1.73;;;1.73;;
595;SDS011;19946;49.306;11.350;2024-01-25T01:07:31;1.80;;;1.80;;
595;SDS011;19946;49.306;11.350;2024-01-25T01:10:31;1.83;;;1.83;;
595;SDS011;19946;49.306;11.350;2024-01-25T01:13:31;2.10;;;2.10;;
595;SDS011;19946;49.306;11.350;2024-01-25T01:16:32;2.20;;;2.20;;
595;SDS011;19946;49.306;11.350;2024-01-25T01:19:33;2.00;;;2.00;;
595;SDS011;19946;49.306;11.350;2024-01-25T01:22:33;1.90;;;1.90;;
595;SDS011;19946;49.306;11.350;2024-01-25T01:25:35;1.90;;;1.90;;
595;SDS011;19946;49.306;11.350;2024-01-25T01:28:35;1.90;;;1.90;;
595;SDS011;19946;49.306;11.350;2024-01-25T01:31:35;1.70;;;1.70;;
595;SDS011;19946;49.306;11.350;2024-01-25T01:34:36;1.70;;;1.70;;
595;SDS011;19946;49.306;11.350;2024-01-25T01:37:36;1.60;;;1.60;;
595;SDS011;19946;49.306;11.350;2024-01-25T01:40:36;1.40;;;1.40;;
595;SDS011;19946;49.306;11.350;2024-01-25T01:43:37;1.60;;;1.60;;
595;SDS011;19946;49.306;11.350;2024-01-25T01:46:37;1.90;;;1.90;;
595;SDS011;19946;49.306;11.350;2024-01-25T01:49:39;1.60;;;1.60;;
595;SDS011;19946;49.306;11.350;2024-01-25T01:52:40;1.90;;;1.90;;
595;SDS011;19946;49.306;11.350;2024-01-25T01:55:41;1.90;;;1.90;;
595;SDS011;19946;49.306;11.350;2024-01-25T01:58:42;1.80;;;1.80;;
595;SDS011;19946;49.306;11.350;2024-01-25T02:01:43;1.90;;;1.90;;
595;SDS011;19946;49.306;11.350;2024-01-25T02:04:44;2.10;;;2.10;;
595;SDS011;19946;49.306;11.350;2024-01-25T02:07:44;2.13;;;2.13;;
595;SDS011;19946;49.306;11.350;2024-01-25T02:10:44;2.00;;;2.00;;
595;SDS011;19946;49.306;11.350;2024-01-25T02:13:45;1.80;;;1.80;;
595;SDS011;19946;49.306;11.350;2024-01-25T02:16:45;1.80;;;1.80;;
595;SDS011;19946;49.306;11.350;2024-01-25T02:19:47;1.80;;;1.80;;
595;SDS011;19946;49.306;11.350;2024-01-25T02:22:47;1.50;;;1.50;;
595;SDS011;19946;49.306;11.350;2024-01-25T02:25:47;1.40;;;1.40;;
595;SDS011;19946;49.306;11.350;2024-01-25T02:28:47;1.60;;;1.60;;
595;SDS011;19946;49.306;11.350;2024-01-25T02:31:48;1.60;;;1.60;;
595;SDS011;19946;49.306;11.350;2024-01-25T02:34:48;1.80;;;1.80;;
595;SDS011;19946;49.306;11.350;2024-01-25T02:37:49;1.60;;;1.60;;
595;SDS011;19946;49.306;11.350;2024-01-25T02:40:50;1.83;;;1.83;;
595;SDS011;19946;49.306;11.350;2024-01-25T02:43:51;1.60;;;1.60;;
595;SDS011;19946;49.306;11.350;2024-01-25T02:46:51;2.00;;;2.00;;
595;SDS011;19946;49.306;11.350;2024-01-25T02:49:52;1.90;;;1.90;;
595;SDS011;19946;49.306;11.350;2024-01-25T02:52:52;2.00;;;2.00;;
595;SDS011;19946;49.306;11.350;2024-01-25T02:55:52;1.80;;;1.80;;
595;SDS011;19946;49.306;11.350;2024-01-25T02:58:53;2.10;;;2.10;;
595;SDS011;19946;49.306;11.350;2024-01-25T03:01:53;1.80;;;1.80;;
595;SDS011;19946;49.306;11.350;2024-01-25T03:04:54;1.90;;;1.90;;
595;SDS011;19946;49.306;11.350;2024-01-25T03:07:55;1.70;;;1.70;;
595;SDS011;19946;49.306;11.350;2024-01-25T03:10:55;1.40;;;1.40;;
595;SDS011;19946;49.306;11.350;2024-01-25T03:13:56;1.67;;;1.67;;
595;SDS011;19946;49.306;11.350;2024-01-25T03:16:57;1.60;;;1.60;;
595;SDS011;19946;49.306;11.350;2024-01-25T03:19:57;1.50;;;1.50;;
595;SDS011;19946;49.306;11.350;2024-01-25T03:22:58;1.73;;;1.73;;
595;SDS011;19946;49.306;11.350;2024-01-25T03:25:58;1.60;;;1.60;;
595;SDS011;19946;49.306;11.350;2024-01-25T03:28:58;1.60;;;1.60;;
595;SDS011;19946;49.306;11.350;2024-01-25T03:31:59;1.60;;;1.60;;
595;SDS011;19946;49.306;11.350;2024-01-25T03:34:59;1.60;;;1.60;;
595;SDS011;19946;49.306;11.350;2024-01-25T03:37:59;1.30;;;1.30;;
595;SDS011;19946;49.306;11.350;2024-01-25T03:41:00;1.43;;;1.43;;
595;SDS011;19946;49.306;11.350;2024-01-25T03:44:00;1.30;;;1.30;;
595;SDS011;19946;49.306;11.350;2024-01-25T03:47:00;1.40;;;1.40;;
595;SDS011;19946;49.306;11.350;2024-01-25T03:50:01;1.50;;;1.50;;
595;SDS011;19946;49.306;11.350;2024-01-25T03:53:01;1.40;;;1.40;;
595;SDS011;19946;49.306;11.350;2024-01-25T03:56:01;1.40;;;1.40;;
595;SDS011;19946;49.306;11.350;2024-01-25T03:59:03;1.47;;;1.47;;
595;SDS011;19946;49.306;11.350;2024-01-25T04:02:03;1.73;;;1.73;;
595;SDS011;19946;49.306;11.350;2024-01-25T04:05:04;1.57;;;1.57;;
595;SDS011;19946;49.306;11.350;2024-01-25T04:08:05;2.20;;;2.20;;
595;SDS011;19946;49.306;11.350;2024-01-25T04:11:05;1.60;;;1.60;;
595;SDS011;19946;49.306;11.350;2024-01-25T04:14:06;1.67;;;1.67;;
595;SDS011;19946;49.306;11.350;2024-01-25T04:17:06;1.60;;;1.60;;
595;SDS011;19946;49.306;11.350;2024-01-25T04:20:07;1.60;;;1.60;;
595;SDS011;19946;49.306;11.350;2024-01-25T04:23:07;1.50;;;1.50;;
595;SDS011;19946;49.306;11.350;2024-01-25T04:26:07;1.60;;;1.60;;
595;SDS011;19946;49.306;11.350;2024-01-25T04:29:08;1.70;;;1.70;;
595;SDS011;19946;49.306;11.350;2024-01-25T04:32:08;1.70;;;1.70;;
595;SDS011;19946;49.306;11.350;2024-01-25T04:35:08;1.97;;;1.97;;
595;SDS011;19946;49.306;11.350;2024-01-25T04:38:10;1.43;;;1.43;;
595;SDS011;19946;49.306;11.350;2024-01-25T04:41:10;1.60;;;1.60;;
595;SDS011;19946;49.306;11.350;2024-01-25T04:44:10;1.70;;;1.70;;
595;SDS011;19946;49.306;11.350;2024-01-25T04:47:10;1.70;;;1.70;;
595;SDS011;19946;49.306;11.350;2024-01-25T04:50:11;1.70;;;1.70;;
595;SDS011;19946;49.306;11.350;2024-01-25T04:53:11;1.90;;;1.90;;
595;SDS011;19946;49.306;11.350;2024-01-25T04:56:11;1.50;;;1.50;;
595;SDS011;19946;49.306;11.350;2024-01-25T04:59:12;1.60;;;1.60;;
595;SDS011;19946;49.306;11.350;2024-01-25T05:02:12;1.60;;;1.60;;
595;SDS011;19946;49.306;11.350;2024-01-25T05:05:12;1.60;;;1.60;;
595;SDS011;19946;49.306;11.350;2024-01-25T05:08:13;1.67;;;1.67;;
595;SDS011;19946;49.306;11.350;2024-01-25T05:11:13;1.83;;;1.83;;
595;SDS011;19946;49.306;11.350;2024-01-25T05:14:13;1.80;;;1.80;;
595;SDS011;19946;49.306;11.350;2024-01-25T05:17:14;1.50;;;1.50;;
595;SDS011;19946;49.306;11.350;2024-01-25T05:20:14;1.60;;;1.60;;
595;SDS011;19946;49.306;11.350;2024-01-25T05:23:17;1.40;;;1.40;;
595;SDS011;19946;49.306;11.350;2024-01-25T05:26:17;1.40;;;1.40;;
595;SDS011;19946;49.306;11.350;2024-01-25T05:29:18;1.47;;;1.47;;
595;SDS011;19946;49.306;11.350;2024-01-25T05:32:19;1.63;;;1.63;;
595;SDS011;19946;49.306;11.350;2024-01-25T05:35:21;1.73;;;1.73;;
595;SDS011;19946;49.306;11.350;2024-01-25T05:38:21;2.00;;;2.00;;
595;SDS011;19946;49.306;11.350;2024-01-25T05:41:22;1.77;;;1.77;;
595;SDS011;19946;49.306;11.350;2024-01-25T05:44:22;1.80;;;1.80;;
595;SDS011;19946;49.306;11.350;2024-01-25T05:47:22;1.80;;;1.80;;
595;SDS011;19946;49.306;11.350;2024-01-25T05:50:22;1.50;;;1.50;;
595;SDS011;19946;49.306;11.350;2024-01-25T05:53:23;1.90;;;1.90;;
595;SDS011;19946;49.306;11.350;2024-01-25T05:56:23;1.70;;;1.70;;
595;SDS011;19946;49.306;11.350;2024-01-25T05:59:24;1.70;;;1.70;;
595;SDS011;19946;49.306;11.350;2024-01-25T06:02:24;1.60;;;1.60;;
595;SDS011;19946;49.306;11.350;2024-01-25T06:05:24;1.60;;;1.60;;
595;SDS011;19946;49.306;11.350;2024-01-25T06:08:25;1.60;;;1.60;;
595;SDS011;19946;49.306;11.350;2024-01-25T06:11:25;1.60;;;1.60;;
595;SDS011;19946;49.306;11.350;2024-01-25T06:14:26;1.60;;;1.60;;
595;SDS011;19946;49.306;11.350;2024-01-25T06:17:26;1.70;;;1.70;;
595;SDS011;19946;49.306;11.350;2024-01-25T06:20:27;1.40;;;1.40;;
595;SDS011;19946;49.306;11.350;2024-01-25T06:23:27;1.80;;;1.80;;
595;SDS011;19946;49.306;11.350;2024-01-25T06:26:27;1.80;;;1.80;;
595;SDS011;19946;49.306;11.350;2024-01-25T06:29:28;1.80;;;1.80;;
595;SDS011;19946;49.306;11.350;2024-01-25T06:32:28;1.93;;;1.93;;
595;SDS011;19946;49.306;11.350;2024-01-25T06:35:28;2.03;;;2.03;;
595;SDS011;19946;49.306;11.350;2024-01-25T06:38:29;2.00;;;2.00;;
595;SDS011;19946;49.306;11.350;2024-01-25T06:41:29;2.10;;;2.10;;
595;SDS011;19946;49.306;11.350;2024-01-25T06:44:30;2.50;;;2.50;;
595;SDS011;19946;49.306;11.350;2024-01-25T06:47:30;2.40;;;2.40;;
595;SDS011;19946;49.306;11.350;2024-01-25T06:50:30;2.60;;;2.60;;
595;SDS011;19946;49.306;11.350;2024-01-25T06:53:31;2.60;;;2.60;;
595;SDS011;19946;49.306;11.350;2024-01-25T06:56:32;2.47;;;2.47;;
595;SDS011;19946;49.306;11.350;2024-01-25T06:59:34;2.43;;;2.43;;
595;SDS011;19946;49.306;11.350;2024-01-25T07:02:34;3.00;;;3.00;;
595;SDS011;19946;49.306;11.350;2024-01-25T07:05:35;2.90;;;2.90;;
595;SDS011;19946;49.306;11.350;2024-01-25T07:08:35;2.40;;;2.40;;
595;SDS011;19946;49.306;11.350;2024-01-25T07:11:36;2.70;;;2.70;;
595;SDS011;19946;49.306;11.350;2024-01-25T07:14:36;2.70;;;2.70;;
595;SDS011;19946;49.306;11.350;2024-01-25T07:17:36;2.70;;;2.70;;
595;SDS011;19946;49.306;11.350;2024-01-25T07:20:37;2.70;;;2.70;;
595;SDS011;19946;49.306;11.350;2024-01-25T07:23:37;2.40;;;2.40;;
595;SDS011;19946;49.306;11.350;2024-01-25T07:26:37;2.80;;;2.80;;
595;SDS011;19946;49.306;11.350;2024-01-25T07:29:37;3.30;;;3.30;;
595;SDS011;19946;49.306;11.350;2024-01-25T07:32:38;3.00;;;3.00;;
595;SDS011;19946;49.306;11.350;2024-01-25T07:35:42;3.10;;;3.10;;
595;SDS011;19946;49.306;11.350;2024-01-25T07:38:45;2.57;;;2.57;;
595;SDS011;19946;49.306;11.350;2024-01-25T07:41:49;3.50;;;3.50;;
595;SDS011;19946;49.306;11.350;2024-01-25T07:44:50;3.30;;;3.30;;
595;SDS011;19946;49.306;11.350;2024-01-25T07:47:51;2.17;;;2.17;;
595;SDS011;19946;49.306;11.350;2024-01-25T07:50:52;2.90;;;2.90;;
595;SDS011;19946;49.306;11.350;2024-01-25T07:53:52;2.90;;;2.90;;
595;SDS011;19946;49.306;11.350;2024-01-25T07:56:52;2.57;;;2.57;;
595;SDS011;19946;49.306;11.350;2024-01-25T07:59:52;2.70;;;2.70;;
595;SDS011;19946;49.306;11.350;2024-01-25T08:02:53;2.80;;;2.80;;
595;SDS011;19946;49.306;11.350;2024-01-25T08:05:53;2.60;;;2.60;;
595;SDS011;19946;49.306;11.350;2024-01-25T08:08:53;2.70;;;2.70;;
595;SDS011;19946;49.306;11.350;2024-01-25T08:11:54;2.20;;;2.20;;
595;SDS011;19946;49.306;11.350;2024-01-25T08:14:54;2.30;;;2.30;;
595;SDS011;19946;49.306;11.350;2024-01-25T08:17:55;2.40;;;2.40;;
595;SDS011;19946;49.306;11.350;2024-01-25T08:20:55;2.40;;;2.40;;
595;SDS011;19946;49.306;11.350;2024-01-25T08:23:56;2.60;;;2.60;;
595;SDS011;19946;49.306;11.350;2024-01-25T08:26:56;2.50;;;2.50;;
595;SDS011;19946;49.306;11.350;2024-01-25T08:29:57;2.30;;;2.30;;
595;SDS011;19946;49.306;11.350;2024-01-25T08:32:57;2.20;;;2.20;;
595;SDS011;19946;49.306;11.350;2024-01-25T08:35:59;2.23;;;2.23;;
595;SDS011;19946;49.306;11.350;2024-01-25T08:38:59;1.80;;;1.80;;
595;SDS011;19946;49.306;11.350;2024-01-25T08:41:59;1.60;;;1.60;;
595;SDS011;19946;49.306;11.350;2024-01-25T08:45:06;1.90;;;1.90;;
595;SDS011;19946;49.306;11.350;2024-01-25T08:48:09;2.20;;;2.20;;
595;SDS011;19946;49.306;11.350;2024-01-25T08:51:09;1.90;;;1.90;;
595;SDS011;19946;49.306;11.350;2024-01-25T08:54:09;1.90;;;1.90;;
595;SDS011;19946;49.306;11.350;2024-01-25T08:57:09;1.60;;;1.60;;
595;SDS011;19946;49.306;11.350;2024-01-25T09:00:10;1.70;;;1.70;;
595;SDS011;19946;49.306;11.350;2024-01-25T09:03:11;1.73;;;1.73;;
595;SDS011;19946;49.306;11.350;2024-01-25T09:06:11;1.60;;;1.60;;
595;SDS011;19946;49.306;11.350;2024-01-25T09:09:12;1.50;;;1.50;;
595;SDS011;19946;49.306;11.350;2024-01-25T09:12:12;1.63;;;1.63;;
595;SDS011;19946;49.306;11.350;2024-01-25T09:15:14;1.60;;;1.60;;
595;SDS011;19946;49.306;11.350;2024-01-25T09:18:14;1.60;;;1.60;;
595;SDS011;19946;49.306;11.350;2024-01-25T09:21:15;1.50;;;1.50;;
595;SDS011;19946;49.306;11.350;2024-01-25T09:24:16;1.40;;;1.40;;
595;SDS011;19946;49.306;11.350;2024-01-25T09:27:16;1.50;;;1.50;;
595;SDS011;19946;49.306;11.350;2024-01-25T09:30:17;1.50;;;1.50;;
595;SDS011;19946;49.306;11.350;2024-01-25T09:33:18;1.40;;;1.40;;
595;SDS011;19946;49.306;11.350;2024-01-25T09:36:19;1.73;;;1.73;;
595;SDS011;19946;49.306;11.350;2024-01-25T09:39:19;1.70;;;1.70;;
595;SDS011;19946;49.306;11.350;2024-01-25T09:42:20;1.67;;;1.67;;
595;SDS011;19946;49.306;11.350;2024-01-25T09:45:21;1.57;;;1.57;;
595;SDS011;19946;49.306;11.350;2024-01-25T09:48:24;1.60;;;1.60;;
595;SDS011;19946;49.306;11.350;2024-01-25T09:51:36;1.50;;;1.50;;
595;SDS011;19946;49.306;11.350;2024-01-25T09:54:39;1.57;;;1.57;;
595;SDS011;19946;49.306;11.350;2024-01-25T09:57:40;1.50;;;1.50;;
595;SDS011;19946;49.306;11.350;2024-01-25T10:00:45;2.20;;;2.20;;
595;SDS011;19946;49.306;11.350;2024-01-25T10:03:49;1.70;;;1.70;;
595;SDS011;19946;49.306;11.350;2024-01-25T10:06:54;1.50;;;1.50;;
595;SDS011;19946;49.306;11.350;2024-01-25T10:09:56;1.50;;;1.50;;
595;SDS011;19946;49.306;11.350;2024-01-25T10:12:57;1.40;;;1.40;;
595;SDS011;19946;49.306;11.350;2024-01-25T10:16:02;1.50;;;1.50;;
595;SDS011;19946;49.306;11.350;2024-01-25T10:19:05;1.40;;;1.40;;
595;SDS011;19946;49.306;11.350;2024-01-25T10:22:12;1.30;;;1.30;;
595;SDS011;19946;49.306;11.350;2024-01-25T10:25:15;1.47;;;1.47;;
595;SDS011;19946;49.306;11.350;2024-01-25T10:28:25;1.60;;;1.60;;
595;SDS011;19946;49.306;11.350;2024-01-25T10:31:30;1.67;;;1.67;;
595;SDS011;19946;49.306;11.350;2024-01-25T10:34:41;1.20;;;1.20;;
595;SDS011;19946;49.306;11.350;2024-01-25T10:37:48;1.60;;;1.60;;
595;SDS011;19946;49.306;11.350;2024-01-25T10:41:37;1.50;;;1.50;;
595;SDS011;19946;49.306;11.350;2024-01-25T10:44:41;1.40;;;1.40;;
595;SDS011;19946;49.306;11.350;2024-01-25T10:47:52;1.50;;;1.50;;
595;SDS011;19946;49.306;11.350;2024-01-25T10:50:55;1.50;;;1.50;;
595;SDS011;19946;49.306;11.350;2024-01-25T10:54:03;1.50;;;1.50;;
595;SDS011;19946;49.306;11.350;2024-01-25T10:57:15;1.50;;;1.50;;
595;SDS011;19946;49.306;11.350;2024-01-25T11:00:20;1.53;;;1.53;;
595;SDS011;19946;49.306;11.350;2024-01-25T11:03:28;1.50;;;1.50;;
595;SDS011;19946;49.306;11.350;2024-01-25T11:10:51;1.73;;;1.73;;
595;SDS011;19946;49.306;11.350;2024-01-25T11:13:55;1.57;;;1.57;;
595;SDS011;19946;49.306;11.350;2024-01-25T11:17:14;1.30;;;1.30;;
595;SDS011;19946;49.306;11.350;2024-01-25T11:20:21;1.40;;;1.40;;
595;SDS011;19946;49.306;11.350;2024-01-25T11:24:04;1.30;;;1.30;;
595;SDS011;19946;49.306;11.350;2024-01-25T11:27:05;1.50;;;1.50;;
595;SDS011;19946;49.306;11.350;2024-01-25T11:30:38;1.40;;;1.40;;
595;SDS011;19946;49.306;11.350;2024-01-25T11:33:39;1.70;;;1.70;;
595;SDS011;19946;49.306;11.350;2024-01-25T11:36:41;1.47;;;1.47;;
595;SDS011;19946;49.306;11.350;2024-01-25T11:39:43;1.60;;;1.60;;
595;SDS011;19946;49.306;11.350;2024-01-25T11:42:45;1.50;;;1.50;;
595;SDS011;19946;49.306;11.350;2024-01-25T11:45:49;1.43;;;1.43;;
595;SDS011;19946;49.306;11.350;2024-01-25T11:48:50;1.40;;;1.40;;
595;SDS011;19946;49.306;11.350;2024-01-25T11:51:51;1.50;;;1.50;;
595;SDS011;19946;49.306;11.350;2024-01-25T11:54:52;1.50;;;1.50;;
595;SDS011;19946;49.306;11.350;2024-01-25T11:57:53;1.50;;;1.50;;
595;SDS011;19946;49.306;11.350;2024-01-25T12:00:53;1.50;;;1.50;;
595;SDS011;19946;49.306;11.350;2024-01-25T12:03:56;1.40;;;1.40;;
595;SDS011;19946;49.306;11.350;2024-01-25T12:07:00;1.40;;;1.40;;
595;SDS011;19946;49.306;11.350;2024-01-25T12:10:08;1.30;;;1.30;;
595;SDS011;19946;49.306;11.350;2024-01-25T12:13:16;1.40;;;1.40;;
595;SDS011;19946;49.306;11.350;2024-01-25T12:16:19;1.30;;;1.30;;
595;SDS011;19946;49.306;11.350;2024-01-25T12:19:20;1.30;;;1.30;;
595;SDS011;19946;49.306;11.350;2024-01-25T12:22:21;1.30;;;1.30;;
595;SDS011;19946;49.306;11.350;2024-01-25T12:25:25;1.37;;;1.37;;
595;SDS011;19946;49.306;11.350;2024-01-25T12:28:28;1.50;;;1.50;;
595;SDS011;19946;49.306;11.350;2024-01-25T12:31:30;1.57;;;1.57;;
595;SDS011;19946;49.306;11.350;2024-01-25T12:34:34;1.47;;;1.47;;
595;SDS011;19946;49.306;11.350;2024-01-25T12:37:37;1.40;;;1.40;;
595;SDS011;19946;49.306;11.350;2024-01-25T12:40:38;1.20;;;1.20;;
595;SDS011;19946;49.306;11.350;2024-01-25T12:43:40;1.30;;;1.30;;
595;SDS011;19946;49.306;11.350;2024-01-25T12:46:41;1.30;;;1.30;;
595;SDS011;19946;49.306;11.350;2024-01-25T12:49:51;1.50;;;1.50;;
595;SDS011;19946;49.306;11.350;2024-01-25T12:52:52;1.20;;;1.20;;
595;SDS011;19946;49.306;11.350;2024-01-25T12:55:53;1.30;;;1.30;;
595;SDS011;19946;49.306;11.350;2024-01-25T12:58:54;1.27;;;1.27;;
595;SDS011;19946;49.306;11.350;2024-01-25T13:01:55;1.37;;;1.37;;
595;SDS011;19946;49.306;11.350;2024-01-25T13:04:56;1.47;;;1.47;;
595;SDS011;19946;49.306;11.350;2024-01-25T13:07:56;1.20;;;1.20;;
595;SDS011;19946;49.306;11.350;2024-01-25T13:10:57;1.30;;;1.30;;
595;SDS011;19946;49.306;11.350;2024-01-25T13:13:58;1.10;;;1.10;;
595;SDS011;19946;49.306;11.350;2024-01-25T13:16:58;1.10;;;1.10;;
595;SDS011;19946;49.306;11.350;2024-01-25T13:19:59;1.30;;;1.30;;
595;SDS011;19946;49.306;11.350;2024-01-25T13:23:00;1.13;;;1.13;;
595;SDS011;19946;49.306;11.350;2024-01-25T13:26:02;1.30;;;1.30;;
595;SDS011;19946;49.306;11.350;2024-01-25T13:29:03;1.30;;;1.30;;
595;SDS011;19946;49.306;11.350;2024-01-25T13:32:07;1.10;;;1.10;;
595;SDS011;19946;49.306;11.350;2024-01-25T13:35:08;1.00;;;1.00;;
595;SDS011;19946;49.306;11.350;2024-01-25T13:38:09;1.00;;;1.00;;
595;SDS011;19946;49.306;11.350;2024-01-25T13:41:14;0.83;;;0.83;;
595;SDS011;19946;49.306;11.350;2024-01-25T13:44:15;0.97;;;0.97;;
595;SDS011;19946;49.306;11.350;2024-01-25T13:47:16;1.10;;;1.10;;
595;SDS011;19946;49.306;11.350;2024-01-25T13:50:17;1.10;;;1.10;;
595;SDS011;19946;49.306;11.350;2024-01-25T13:53:18;1.20;;;1.20;;
595;SDS011;19946;49.306;11.350;2024-01-25T13:56:19;0.90;;;0.90;;
595;SDS011;19946;49.306;11.350;2024-01-25T13:59:20;1.10;;;1.10;;
595;SDS011;19946;49.306;11.350;2024-01-25T14:02:21;1.00;;;1.00;;
595;SDS011;19946;49.306;11.350;2024-01-25T14:05:22;1.00;;;1.00;;
595;SDS011;19946;49.306;11.350;2024-01-25T14:08:25;1.10;;;1.10;;
595;SDS011;19946;49.306;11.350;2024-01-25T14:11:26;1.10;;;1.10;;
595;SDS011;19946;49.306;11.350;2024-01-25T14:14:27;0.90;;;0.90;;
595;SDS011;19946;49.306;11.350;2024-01-25T14:17:31;0.90;;;0.90;;
595;SDS011;19946;49.306;11.350;2024-01-25T14:20:31;1.10;;;1.10;;
595;SDS011;19946;49.306;11.350;2024-01-25T14:23:32;1.10;;;1.10;;
595;SDS011;19946;49.306;11.350;2024-01-25T14:26:33;1.00;;;1.00;;
595;SDS011;19946;49.306;11.350;2024-01-25T14:29:34;0.90;;;0.90;;
595;SDS011;19946;49.306;11.350;2024-01-25T14:32:35;1.00;;;1.00;;
595;SDS011;19946;49.306;11.350;2024-01-25T14:35:36;0.90;;;0.90;;
595;SDS011;19946;49.306;11.350;2024-01-25T14:38:37;0.90;;;0.90;;
595;SDS011;19946;49.306;11.350;2024-01-25T14:41:38;0.90;;;0.90;;
595;SDS011;19946;49.306;11.350;2024-01-25T14:44:39;1.10;;;1.10;;
595;SDS011;19946;49.306;11.350;2024-01-25T14:47:43;0.80;;;0.80;;
595;SDS011;19946;49.306;11.350;2024-01-25T14:50:44;0.90;;;0.90;;
595;SDS011;19946;49.306;11.350;2024-01-25T14:53:44;1.10;;;1.10;;
595;SDS011;19946;49.306;11.350;2024-01-25T14:56:45;1.00;;;1.00;;
595;SDS011;19946;49.306;11.350;2024-01-25T14:59:51;1.20;;;1.20;;
595;SDS011;19946;49.306;11.350;2024-01-25T15:02:52;1.00;;;1.00;;
595;SDS011;19946;49.306;11.350;2024-01-25T15:05:53;1.00;;;1.00;;
595;SDS011;19946;49.306;11.350;2024-01-25T15:08:56;1.10;;;1.10;;
595;SDS011;19946;49.306;11.350;2024-01-25T15:11:57;1.00;;;1.00;;
595;SDS011;19946;49.306;11.350;2024-01-25T15:14:58;1.00;;;1.00;;
595;SDS011;19946;49.306;11.350;2024-01-25T15:17:59;1.10;;;1.10;;
595;SDS011;19946;49.306;11.350;2024-01-25T15:21:00;1.00;;;1.00;;
595;SDS011;19946;49.306;11.350;2024-01-25T15:24:02;1.00;;;1.00;;
595;SDS011;19946;49.306;11.350;2024-01-25T15:27:05;0.90;;;0.90;;
595;SDS011;19946;49.306;11.350;2024-01-25T15:30:06;1.03;;;1.03;;
595;SDS011;19946;49.306;11.350;2024-01-25T15:33:09;0.93;;;0.93;;
595;SDS011;19946;49.306;11.350;2024-01-25T15:36:10;0.83;;;0.83;;
595;SDS011;19946;49.306;11.350;2024-01-25T15:39:14;0.80;;;0.80;;
595;SDS011;19946;49.306;11.350;2024-01-25T15:42:14;1.00;;;1.00;;
595;SDS011;19946;49.306;11.350;2024-01-25T15:45:15;1.00;;;1.00;;
595;SDS011;19946;49.306;11.350;2024-01-25T15:48:16;1.00;;;1.00;;
595;SDS011;19946;49.306;11.350;2024-01-25T15:51:17;1.03;;;1.03;;
595;SDS011;19946;49.306;11.350;2024-01-25T15:54:18;1.00;;;1.00;;
595;SDS011;19946;49.306;11.350;2024-01-25T15:57:19;1.33;;;1.33;;
595;SDS011;19946;49.306;11.350;2024-01-25T16:00:20;1.30;;;1.30;;
595;SDS011;19946;49.306;11.350;2024-01-25T16:03:21;1.30;;;1.30;;
595;SDS011;19946;49.306;11.350;2024-01-25T16:06:22;1.30;;;1.30;;
595;SDS011;19946;49.306;11.350;2024-01-25T16:09:22;1.30;;;1.30;;
595;SDS011;19946;49.306;11.350;2024-01-25T16:12:23;1.10;;;1.10;;
595;SDS011;19946;49.306;11.350;2024-01-25T16:15:24;1.10;;;1.10;;
595;SDS011;19946;49.306;11.350;2024-01-25T16:18:28;1.00;;;1.00;;
595;SDS011;19946;49.306;11.350;2024-01-25T16:21:33;1.07;;;1.07;;
595;SDS011;19946;49.306;11.350;2024-01-25T16:24:47;1.10;;;1.10;;
595;SDS011;19946;49.306;11.350;2024-01-25T16:27:47;1.07;;;1.07;;
595;SDS011;19946;49.306;11.350;2024-01-25T16:30:51;1.20;;;1.20;;
595;SDS011;19946;49.306;11.350;2024-01-25T16:33:51;1.30;;;1.30;;
595;SDS011;19946;49.306;11.350;2024-01-25T16:36:52;1.80;;;1.80;;
595;SDS011;19946;49.306;11.350;2024-01-25T16:39:52;1.87;;;1.87;;
595;SDS011;19946;49.306;11.350;2024-01-25T16:42:52;1.50;;;1.50;;
595;SDS011;19946;49.306;11.350;2024-01-25T16:45:54;1.50;;;1.50;;
595;SDS011;19946;49.306;11.350;2024-01-25T16:48:54;1.63;;;1.63;;
595;SDS011;19946;49.306;11.350;2024-01-25T16:51:55;1.70;;;1.70;;
595;SDS011;19946;49.306;11.350;2024-01-25T16:54:55;2.00;;;2.00;;
595;SDS011;19946;49.306;11.350;2024-01-25T16:57:56;1.93;;;1.93;;
595;SDS011;19946;49.306;11.350;2024-01-25T17:00:56;1.90;;;1.90;;
595;SDS011;19946;49.306;11.350;2024-01-25T17:03:56;2.30;;;2.30;;
595;SDS011;19946;49.306;11.350;2024-01-25T17:06:57;2.10;;;2.10;;
595;SDS011;19946;49.306;11.350;2024-01-25T17:09:57;2.00;;;2.00;;
595;SDS011;19946;49.306;11.350;2024-01-25T17:12:57;2.03;;;2.03;;
595;SDS011;19946;49.306;11.350;2024-01-25T17:15:58;2.83;;;2.83;;
595;SDS011;19946;49.306;11.350;2024-01-25T17:18:58;2.70;;;2.70;;
595;SDS011;19946;49.306;11.350;2024-01-25T17:21:59;3.20;;;3.20;;
595;SDS011;19946;49.306;11.350;2024-01-25T17:24:59;2.90;;;2.90;;
595;SDS011;19946;49.306;11.350;2024-01-25T17:27:59;3.00;;;3.00;;
595;SDS011;19946;49.306;11.350;2024-01-25T17:31:00;2.80;;;2.80;;
595;SDS011;19946;49.306;11.350;2024-01-25T17:34:01;2.40;;;2.40;;
595;SDS011;19946;49.306;11.350;2024-01-25T17:37:02;2.33;;;2.33;;
595;SDS011;19946;49.306;11.350;2024-01-25T17:40:03;2.73;;;2.73;;
595;SDS011;19946;49.306;11.350;2024-01-25T17:43:03;2.70;;;2.70;;
595;SDS011;19946;49.306;11.350;2024-01-25T17:46:03;3.17;;;3.17;;
595;SDS011;19946;49.306;11.350;2024-01-25T17:49:04;3.70;;;3.70;;
595;SDS011;19946;49.306;11.350;2024-01-25T17:52:04;4.23;;;4.23;;
595;SDS011;19946;49.306;11.350;2024-01-25T17:55:05;4.30;;;4.30;;
595;SDS011;19946;49.306;11.350;2024-01-25T17:58:06;3.57;;;3.57;;
595;SDS011;19946;49.306;11.350;2024-01-25T18:01:06;3.33;;;3.33;;
595;SDS011;19946;49.306;11.350;2024-01-25T18:04:06;3.10;;;3.10;;
595;SDS011;19946;49.306;11.350;2024-01-25T18:07:07;3.77;;;3.77;;
595;SDS011;19946;49.306;11.350;2024-01-25T18:10:07;4.20;;;4.20;;
595;SDS011;19946;49.306;11.350;2024-01-25T18:13:07;3.83;;;3.83;;
595;SDS011;19946;49.306;11.350;2024-01-25T18:16:08;5.67;;;5.67;;
595;SDS011;19946;49.306;11.350;2024-01-25T18:19:08;4.30;;;4.30;;
595;SDS011;19946;49.306;11.350;2024-01-25T18:22:08;4.73;;;4.73;;
595;SDS011;19946;49.306;11.350;2024-01-25T18:25:09;4.90;;;4.90;;
595;SDS011;19946;49.306;11.350;2024-01-25T18:28:09;4.87;;;4.87;;
595;SDS011;19946;49.306;11.350;2024-01-25T18:31:10;4.63;;;4.63;;
595;SDS011;19946;49.306;11.350;2024-01-25T18:34:11;4.07;;;4.07;;